createdAt,value
2022-11-23T00:02:22.000Z,52.37
2022-11-23T00:04:48.472Z,52.29
2022-11-23T00:07:14.896Z,52.49
2022-11-23T00:09:41.524Z,52.34
2022-11-23T00:12:08.281Z,52.66
2022-11-23T00:14:34.827Z,52.38
2022-11-23T00:17:01.403Z,52.65
2022-11-23T00:19:27.835Z,52.36
2022-11-23T00:21:54.358Z,52.54
2022-11-23T00:24:20.844Z,52.62
2022-11-23T00:26:47.888Z,52.49
2022-11-23T00:29:14.344Z,52.64
2022-11-23T00:31:40.757Z,52.69
2022-11-23T00:34:07.320Z,52.87
2022-11-23T00:36:33.752Z,52.82
2022-11-23T00:39:01.800Z,52.72
2022-11-23T00:41:28.902Z,52.85
2022-11-23T00:43:55.368Z,52.76
2022-11-23T00:46:23.292Z,52.93
2022-11-23T00:48:51.112Z,52.65
2022-11-23T00:51:19.168Z,52.88
2022-11-23T00:53:46.042Z,52.95
2022-11-23T00:56:13.142Z,52.99
2022-11-23T00:58:39.653Z,52.76
2022-11-23T01:01:10.766Z,52.92
2022-11-23T01:03:38.832Z,52.68
2022-11-23T01:06:06.325Z,52.69
2022-11-23T01:08:32.754Z,52.99
2022-11-23T01:11:01.001Z,52.82
2022-11-23T01:13:27.737Z,53.04
2022-11-23T01:15:54.136Z,53.06
2022-11-23T01:18:20.611Z,53.23
2022-11-23T01:20:47.072Z,53.09
2022-11-23T01:23:13.567Z,53.08
2022-11-23T01:25:40.184Z,53.11
2022-11-23T01:28:06.615Z,53.27
2022-11-23T01:30:34.533Z,53.23
2022-11-23T01:33:00.926Z,53.45
2022-11-23T01:35:28.190Z,53.25
2022-11-23T01:37:54.738Z,53.37
2022-11-23T01:40:21.127Z,53.32
2022-11-23T01:42:53.812Z,53.37
2022-11-23T01:45:29.107Z,53.57
2022-11-23T01:47:55.538Z,53.34
2022-11-23T01:50:21.907Z,53.35
2022-11-23T01:52:48.461Z,53.70
2022-11-23T01:55:14.858Z,53.25
2022-11-23T01:57:44.038Z,53.57
2022-11-23T02:00:11.017Z,53.13
2022-11-23T02:02:38.878Z,53.12
2022-11-23T02:05:05.506Z,53.22
2022-11-23T02:07:32.610Z,53.30
2022-11-23T02:09:59.199Z,53.44
2022-11-23T02:12:25.728Z,53.63
2022-11-23T02:14:52.216Z,53.22
2022-11-23T02:17:18.958Z,53.41
2022-11-23T02:20:00.711Z,53.40
2022-11-23T02:22:32.406Z,53.40
2022-11-23T02:25:00.300Z,53.68
2022-11-23T02:27:27.319Z,53.77
2022-11-23T02:29:55.079Z,53.56
2022-11-23T02:32:23.423Z,53.57
2022-11-23T02:34:50.224Z,53.80
2022-11-23T02:37:17.328Z,53.87
2022-11-23T02:39:49.619Z,53.49
2022-11-23T02:42:16.053Z,53.62
2022-11-23T02:44:58.216Z,53.87
2022-11-23T02:47:24.710Z,53.80
2022-11-23T02:49:51.147Z,53.69
2022-11-23T02:52:18.579Z,53.60
2022-11-23T02:54:44.996Z,53.93
2022-11-23T02:57:11.415Z,54.01
2022-11-23T02:59:37.797Z,53.95
2022-11-23T03:02:04.723Z,54.04
2022-11-23T03:04:31.291Z,54.00
2022-11-23T03:06:58.295Z,54.02
2022-11-23T03:09:26.240Z,53.94
2022-11-23T03:11:53.542Z,53.69
2022-11-23T03:14:19.976Z,53.79
2022-11-23T03:16:46.368Z,53.61
2022-11-23T03:19:12.721Z,53.94
2022-11-23T03:21:39.133Z,53.81
2022-11-23T03:24:05.641Z,54.08
2022-11-23T03:26:32.024Z,53.73
2022-11-23T03:28:58.393Z,53.62
2022-11-23T03:31:24.801Z,53.66
2022-11-23T03:33:51.188Z,54.00
2022-11-23T03:36:17.600Z,54.15
2022-11-23T03:38:43.970Z,53.87
2022-11-23T03:41:10.501Z,54.81
2022-11-23T03:43:37.001Z,54.05
2022-11-23T03:46:03.613Z,53.82
2022-11-23T03:48:30.419Z,54.43
2022-11-23T03:50:57.082Z,53.81
2022-11-23T03:53:23.741Z,53.98
2022-11-23T03:55:50.481Z,54.08
2022-11-23T03:58:16.954Z,54.00
2022-11-23T04:00:43.726Z,54.21
2022-11-23T04:03:10.199Z,53.89
2022-11-23T04:05:36.536Z,54.29
2022-11-23T04:08:03.042Z,54.39
2022-11-23T04:10:29.458Z,54.11
2022-11-23T04:12:55.809Z,53.92
2022-11-23T04:15:22.231Z,54.20
2022-11-23T04:17:48.672Z,54.10
2022-11-23T04:20:15.401Z,54.11
2022-11-23T04:22:41.775Z,54.01
2022-11-23T04:25:08.474Z,53.82
2022-11-23T04:27:34.821Z,54.09
2022-11-23T04:30:01.250Z,53.90
2022-11-23T04:32:27.817Z,53.67
2022-11-23T04:34:54.213Z,53.93
2022-11-23T04:37:20.633Z,54.03
2022-11-23T04:39:47.010Z,53.97
2022-11-23T04:42:13.888Z,53.76
2022-11-23T04:44:40.396Z,53.61
2022-11-23T04:47:06.743Z,53.80
2022-11-23T04:49:33.312Z,53.83
2022-11-23T04:51:59.895Z,53.55
2022-11-23T04:54:26.281Z,53.56
2022-11-23T04:56:54.261Z,53.74
2022-11-23T04:59:20.674Z,53.48
2022-11-23T05:01:47.084Z,53.57
2022-11-23T05:04:17.568Z,53.67
2022-11-23T05:06:44.427Z,53.77
2022-11-23T05:09:10.823Z,53.57
2022-11-23T05:11:37.169Z,53.63
2022-11-23T05:14:03.630Z,53.71
2022-11-23T05:16:30.010Z,53.95
2022-11-23T05:18:56.559Z,53.94
2022-11-23T05:21:22.950Z,53.86
2022-11-23T05:23:49.290Z,54.45
2022-11-23T05:26:15.726Z,54.82
2022-11-23T05:28:42.273Z,54.44
2022-11-23T05:31:09.252Z,54.88
2022-11-23T05:33:36.127Z,54.66
2022-11-23T05:36:02.864Z,54.10
2022-11-23T05:38:29.239Z,54.21
2022-11-23T05:40:55.642Z,54.16
2022-11-23T05:43:22.006Z,53.86
2022-11-23T05:45:48.486Z,54.02
2022-11-23T05:48:14.947Z,54.13
2022-11-23T05:50:41.373Z,53.78
2022-11-23T05:53:07.808Z,54.18
2022-11-23T05:55:34.732Z,54.10
2022-11-23T05:58:01.443Z,54.00
2022-11-23T06:00:27.851Z,54.28
2022-11-23T06:02:59.980Z,53.92
2022-11-23T06:05:26.420Z,54.26
2022-11-23T06:07:53.842Z,54.00
2022-11-23T06:10:20.357Z,53.90
2022-11-23T06:12:47.227Z,54.42
2022-11-23T06:15:13.683Z,54.05
2022-11-23T06:17:40.127Z,53.80
2022-11-23T06:20:06.968Z,54.16
2022-11-23T06:22:33.495Z,54.03
2022-11-23T06:25:00.034Z,53.72
2022-11-23T06:27:26.802Z,54.10
2022-11-23T06:29:53.340Z,54.24
2022-11-23T06:32:19.785Z,53.83
2022-11-23T06:34:46.210Z,54.05
2022-11-23T06:37:13.094Z,53.98
2022-11-23T06:39:40.283Z,54.02
2022-11-23T06:42:31.345Z,53.88
2022-11-23T06:44:53.171Z,54.05
2022-11-23T06:47:24.569Z,54.06
2022-11-23T06:49:52.556Z,53.85
2022-11-23T06:52:19.039Z,53.70
2022-11-23T06:54:46.243Z,54.25
2022-11-23T06:57:12.676Z,53.79
2022-11-23T06:59:44.307Z,53.88
2022-11-23T07:02:11.783Z,54.17
2022-11-23T07:04:38.257Z,53.88
2022-11-23T07:07:04.764Z,53.91
2022-11-23T07:09:31.489Z,53.79
2022-11-23T07:11:58.204Z,53.97
2022-11-23T07:14:24.640Z,53.75
2022-11-23T07:16:51.548Z,53.85
2022-11-23T07:19:17.986Z,53.84
2022-11-23T07:21:45.053Z,53.76
2022-11-23T07:24:11.528Z,53.76
2022-11-23T07:26:37.993Z,54.01
2022-11-23T07:29:04.409Z,54.18
2022-11-23T07:31:31.199Z,53.89
2022-11-23T07:33:57.705Z,53.90
2022-11-23T07:36:24.206Z,54.27
2022-11-23T07:38:50.653Z,53.95
2022-11-23T07:41:17.119Z,54.33
2022-11-23T07:43:43.556Z,54.24
2022-11-23T07:46:10.003Z,53.87
2022-11-23T07:48:36.873Z,54.26
2022-11-23T07:51:03.575Z,54.01
2022-11-23T07:53:30.077Z,54.32
2022-11-23T07:55:57.853Z,54.09
2022-11-23T07:58:24.897Z,54.13
2022-11-23T08:00:51.357Z,54.47
2022-11-23T08:03:33.087Z,54.05
2022-11-23T08:05:59.653Z,54.48
2022-11-23T08:08:26.105Z,54.25
2022-11-23T08:10:54.135Z,54.25
2022-11-23T08:13:21.898Z,54.08
2022-11-23T08:15:53.773Z,54.28
2022-11-23T08:18:21.449Z,54.13
2022-11-23T08:20:47.896Z,54.16
2022-11-23T08:23:14.340Z,53.97
2022-11-23T08:25:41.120Z,54.10
2022-11-23T08:28:07.599Z,53.93
2022-11-23T08:30:34.458Z,53.81
2022-11-23T08:33:07.042Z,54.15
2022-11-23T08:35:37.613Z,54.05
2022-11-23T08:38:04.427Z,54.12
2022-11-23T08:40:30.919Z,54.16
2022-11-23T08:42:57.338Z,54.39
2022-11-23T08:45:24.051Z,54.39
2022-11-23T08:47:51.180Z,54.05
2022-11-23T08:50:18.107Z,54.40
2022-11-23T08:52:44.608Z,54.31
2022-11-23T08:55:11.415Z,53.85
2022-11-23T08:57:37.893Z,54.05
2022-11-23T09:00:05.102Z,54.15
2022-11-23T09:02:31.821Z,53.74
2022-11-23T09:04:58.355Z,53.97
2022-11-23T09:07:24.867Z,53.98
2022-11-23T09:09:51.353Z,53.59
2022-11-23T09:12:17.787Z,53.82
2022-11-23T09:14:44.311Z,53.44
2022-11-23T09:17:10.782Z,53.54
2022-11-23T09:19:37.225Z,53.39
2022-11-23T09:22:03.666Z,53.29
2022-11-23T09:24:30.420Z,52.81
2022-11-23T09:26:57.038Z,52.98
2022-11-23T09:29:25.489Z,53.18
2022-11-23T09:31:51.955Z,53.17
2022-11-23T09:34:18.407Z,52.99
2022-11-23T09:36:44.863Z,53.01
2022-11-23T09:39:11.390Z,53.13
2022-11-23T09:41:56.579Z,53.08
2022-11-23T09:44:41.803Z,53.13
2022-11-23T09:47:28.283Z,52.80
2022-11-23T09:49:54.653Z,53.14
2022-11-23T09:52:24.157Z,52.77
2022-11-23T09:54:53.307Z,53.11
2022-11-23T09:57:22.457Z,52.87
2022-11-23T09:59:58.854Z,52.93
2022-11-23T10:02:28.862Z,53.12
2022-11-23T10:07:37.716Z,52.85
2022-11-23T10:13:06.726Z,53.25
2022-11-23T10:15:38.179Z,53.31
2022-11-23T10:18:04.698Z,53.18
2022-11-23T10:20:43.139Z,52.92
2022-11-23T10:23:28.465Z,53.29
2022-11-23T10:25:54.915Z,52.91
2022-11-23T10:28:22.557Z,53.17
2022-11-23T10:30:56.615Z,53.03
2022-11-23T10:33:31.539Z,52.87
2022-11-23T10:35:58.050Z,52.93
2022-11-23T10:38:27.917Z,53.04
2022-11-23T10:41:06.830Z,53.05
2022-11-23T10:43:44.213Z,52.93
2022-11-23T10:46:29.382Z,53.04
2022-11-23T10:48:56.144Z,53.03
2022-11-23T10:51:32.954Z,52.97
2022-11-23T10:54:05.585Z,52.98
2022-11-23T10:56:33.368Z,52.74
2022-11-23T10:58:59.924Z,52.63
2022-11-23T11:01:27.376Z,52.72
2022-11-23T11:03:54.721Z,52.99
2022-11-23T11:06:25.648Z,52.89
2022-11-23T11:08:55.641Z,52.82
2022-11-23T11:11:22.009Z,52.50
2022-11-23T11:13:48.807Z,52.50
2022-11-23T11:16:21.284Z,52.55
2022-11-23T11:18:47.993Z,52.68
2022-11-23T11:21:20.017Z,52.67
2022-11-23T11:23:54.025Z,52.86
2022-11-23T11:26:24.826Z,52.76
2022-11-23T11:28:55.657Z,52.37
2022-11-23T11:31:22.023Z,52.41
2022-11-23T11:33:55.826Z,52.47
2022-11-23T11:36:22.753Z,52.69
2022-11-23T11:39:17.231Z,52.68
2022-11-23T11:41:40.901Z,52.77
2022-11-23T11:44:17.793Z,52.64
2022-11-23T11:46:46.795Z,52.47
2022-11-23T11:49:15.939Z,52.63
2022-11-23T11:51:45.426Z,52.24
2022-11-23T11:54:19.740Z,52.29
2022-11-23T11:56:54.351Z,52.21
2022-11-23T11:59:33.694Z,52.16
2022-11-23T12:02:09.542Z,52.21
2022-11-23T12:04:49.826Z,52.40
2022-11-23T12:07:21.734Z,52.65
2022-11-23T12:09:51.251Z,52.46
2022-11-23T12:12:19.412Z,52.33
2022-11-23T12:14:49.082Z,52.60
2022-11-23T12:17:32.487Z,52.24
2022-11-23T12:33:36.880Z,52.01
2022-11-23T12:36:09.251Z,52.42
2022-11-23T12:38:35.669Z,52.85
2022-11-23T12:41:10.057Z,52.70
2022-11-23T12:43:49.864Z,52.42
2022-11-23T12:46:25.566Z,52.61
2022-11-23T12:48:51.936Z,52.85
2022-11-23T12:51:32.051Z,52.22
2022-11-23T12:54:07.466Z,52.54
2022-11-23T12:56:36.758Z,52.43
2022-11-23T12:59:03.772Z,52.17
2022-11-23T13:01:36.923Z,52.30
2022-11-23T13:04:09.237Z,52.05
2022-11-23T13:06:35.604Z,51.97
2022-11-23T13:09:04.796Z,51.74
2022-11-23T13:11:31.150Z,51.80
2022-11-23T13:14:17.835Z,51.40
2022-11-23T13:16:47.505Z,51.27
2022-11-23T13:19:17.112Z,50.74
2022-11-23T13:21:45.001Z,51.00
2022-11-23T13:24:32.100Z,51.00
2022-11-23T13:27:14.186Z,50.82
2022-11-23T13:29:49.689Z,50.29
2022-11-23T13:32:34.912Z,50.68
2022-11-23T13:35:03.840Z,50.39
2022-11-23T13:37:30.281Z,49.60
2022-11-23T13:39:57.738Z,50.19
2022-11-23T13:42:27.736Z,50.28
2022-11-23T13:45:14.229Z,50.36
2022-11-23T13:47:43.677Z,50.32
2022-11-23T13:50:17.334Z,50.60
2022-11-23T13:52:49.144Z,50.67
2022-11-23T13:55:15.565Z,50.16
2022-11-23T13:57:43.019Z,50.45
2022-11-23T14:00:28.340Z,49.90
2022-11-23T14:03:14.751Z,50.18
2022-11-23T14:05:50.326Z,49.93
2022-11-23T14:08:18.714Z,50.18
2022-11-23T14:10:45.122Z,49.97
2022-11-23T14:13:18.833Z,50.44
2022-11-23T14:15:52.674Z,49.70
2022-11-23T14:18:38.048Z,49.99
2022-11-23T14:21:10.489Z,50.18
2022-11-23T14:23:36.857Z,49.71
2022-11-23T14:26:21.868Z,50.12
2022-11-23T14:29:17.710Z,49.80
2022-11-23T14:31:56.211Z,50.02
2022-11-23T14:34:36.218Z,49.73
2022-11-23T14:37:28.803Z,50.15
2022-11-23T14:40:01.450Z,50.14
2022-11-23T14:42:29.253Z,49.75
2022-11-23T14:44:57.973Z,49.60
2022-11-23T14:47:28.852Z,49.76
2022-11-23T14:49:55.714Z,49.23
2022-11-23T14:52:23.978Z,49.48
2022-11-23T14:54:51.423Z,49.32
2022-11-23T15:06:56.885Z,49.21
2022-11-23T15:09:32.262Z,49.06
2022-11-23T15:12:17.619Z,49.28
2022-11-23T15:14:50.729Z,49.00
2022-11-23T15:17:21.500Z,49.22
2022-11-23T15:19:58.138Z,49.08
2022-11-23T15:22:24.803Z,49.27
2022-11-23T15:32:42.241Z,49.43
2022-11-23T15:35:12.364Z,49.10
2022-11-23T15:37:48.509Z,49.26
2022-11-23T15:40:15.844Z,49.27
2022-11-23T15:42:42.680Z,49.18
2022-11-23T15:45:27.633Z,49.37
2022-11-23T15:47:54.051Z,49.51
2022-11-23T15:50:20.453Z,49.34
2022-11-23T15:52:47.915Z,49.54
2022-11-23T15:55:14.923Z,49.62
2022-11-23T15:57:41.891Z,49.66
2022-11-23T16:00:10.103Z,49.81
2022-11-23T16:02:37.057Z,49.56
2022-11-23T16:05:09.716Z,49.65
2022-11-23T16:07:49.114Z,49.89
2022-11-23T16:10:23.206Z,49.64
2022-11-23T16:12:51.181Z,49.98
2022-11-23T16:15:32.673Z,49.82
2022-11-23T16:17:59.664Z,49.88
2022-11-23T16:20:26.545Z,49.65
2022-11-23T16:22:53.749Z,49.67
2022-11-23T16:25:29.328Z,49.99
2022-11-23T16:28:05.875Z,50.05
2022-11-23T16:30:36.548Z,49.65
2022-11-23T16:33:03.078Z,49.78
2022-11-23T16:35:29.532Z,49.92
2022-11-23T16:37:55.925Z,49.95
2022-11-23T16:40:22.317Z,49.88
2022-11-23T16:42:51.157Z,49.87
2022-11-23T16:45:17.513Z,49.70
2022-11-23T16:47:54.029Z,49.93
2022-11-23T16:50:20.741Z,49.95
2022-11-23T16:52:47.110Z,49.92
2022-11-23T16:55:13.572Z,49.67
2022-11-23T16:57:40.226Z,50.00
2022-11-23T17:00:08.498Z,49.98
2022-11-23T17:02:34.972Z,49.84
2022-11-23T17:05:01.537Z,49.89
2022-11-23T17:07:28.162Z,49.83
2022-11-23T17:09:54.663Z,50.26
2022-11-23T17:12:21.064Z,50.29
2022-11-23T17:14:48.900Z,50.34
2022-11-23T17:17:22.528Z,50.40
2022-11-23T17:19:50.033Z,50.18
2022-11-23T17:22:17.415Z,50.34
2022-11-23T17:24:44.205Z,50.42
2022-11-23T17:27:13.161Z,50.45
2022-11-23T17:29:42.208Z,50.22
2022-11-23T17:32:12.540Z,50.29
2022-11-23T17:34:39.361Z,50.34
2022-11-23T17:37:06.550Z,50.18
2022-11-23T17:39:33.713Z,50.18
2022-11-23T17:42:04.879Z,50.06
2022-11-23T17:44:31.898Z,50.40
2022-11-23T17:46:59.877Z,50.37
2022-11-23T17:49:28.483Z,50.12
2022-11-23T17:51:55.716Z,50.48
2022-11-23T17:54:22.904Z,50.45
2022-11-23T17:56:50.552Z,50.11
2022-11-23T17:59:17.707Z,50.08
2022-11-23T18:01:44.395Z,50.44
2022-11-23T18:04:10.948Z,50.27
2022-11-23T18:06:39.697Z,50.33
2022-11-23T18:09:06.664Z,50.21
2022-11-23T18:11:33.144Z,50.27
2022-11-23T18:13:59.591Z,50.33
2022-11-23T18:16:26.175Z,50.38
2022-11-23T18:18:52.686Z,50.29
2022-11-23T18:21:19.218Z,50.11
2022-11-23T18:23:45.642Z,50.30
2022-11-23T18:26:14.933Z,50.12
2022-11-23T18:28:41.419Z,50.08
2022-11-23T18:31:08.604Z,50.35
2022-11-23T18:33:35.111Z,50.38
2022-11-23T18:36:05.275Z,50.32
2022-11-23T18:41:04.771Z,50.29
2022-11-23T18:43:31.422Z,50.27
2022-11-23T18:45:57.938Z,50.06
2022-11-23T18:48:24.345Z,49.91
2022-11-23T18:50:51.416Z,50.20
2022-11-23T18:53:18.828Z,50.31
2022-11-23T18:55:45.208Z,50.20
2022-11-23T18:58:11.545Z,50.32
2022-11-23T19:00:37.984Z,50.19
2022-11-23T19:03:04.729Z,50.33
2022-11-23T19:05:33.463Z,50.01
2022-11-23T19:08:04.175Z,50.11
2022-11-23T19:10:31.741Z,50.20
2022-11-23T19:13:03.697Z,50.27
2022-11-23T19:15:34.787Z,50.28
2022-11-23T19:18:01.404Z,50.42
2022-11-23T19:20:29.761Z,50.13
2022-11-23T19:22:56.338Z,50.24
2022-11-23T19:25:22.895Z,50.07
2022-11-23T19:27:54.024Z,49.96
2022-11-23T19:30:22.771Z,50.34
2022-11-23T19:32:49.281Z,50.36
2022-11-23T19:35:15.857Z,50.06
2022-11-23T19:37:42.360Z,50.04
2022-11-23T19:40:09.079Z,50.32
2022-11-23T19:42:35.976Z,50.34
2022-11-23T19:45:02.746Z,50.53
2022-11-23T19:47:29.677Z,50.50
2022-11-23T19:49:59.147Z,50.52
2022-11-23T19:52:41.708Z,50.25
2022-11-23T19:55:12.186Z,50.14
2022-11-23T19:57:41.978Z,50.21
2022-11-23T20:00:09.508Z,50.63
2022-11-23T20:02:36.060Z,50.31
2022-11-23T20:05:02.770Z,50.20
2022-11-23T20:07:47.740Z,50.57
2022-11-23T20:10:14.490Z,50.45
2022-11-23T20:12:41.097Z,50.69
2022-11-23T20:15:08.401Z,50.48
2022-11-23T20:17:34.854Z,50.42
2022-11-23T20:25:17.078Z,50.81
2022-11-23T20:27:43.490Z,50.53
2022-11-23T20:30:10.096Z,50.53
2022-11-23T20:32:36.500Z,50.65
2022-11-23T20:35:02.930Z,50.62
2022-11-23T20:37:29.329Z,50.62
2022-11-23T20:39:55.758Z,50.66
2022-11-23T20:42:22.342Z,50.75
2022-11-23T20:44:48.770Z,50.89
2022-11-23T20:47:28.110Z,50.63
2022-11-23T20:49:54.802Z,50.57
2022-11-23T20:52:21.471Z,50.85
2022-11-23T20:54:48.255Z,50.67
2022-11-23T20:57:15.069Z,50.81
2022-11-23T20:59:41.976Z,50.97
2022-11-23T21:02:09.061Z,50.68
2022-11-23T21:04:35.846Z,50.76
2022-11-23T21:07:02.619Z,50.79
2022-11-23T21:09:29.036Z,51.05
2022-11-23T21:21:42.458Z,51.14
2022-11-23T21:24:09.234Z,50.88
2022-11-23T21:26:35.695Z,50.80
2022-11-23T21:29:04.126Z,50.74
2022-11-23T21:31:30.634Z,50.80
2022-11-23T21:34:05.123Z,51.05
2022-11-23T21:36:33.346Z,51.09
2022-11-23T21:39:01.185Z,50.73
2022-11-23T21:41:27.579Z,51.08
2022-11-23T21:43:54.521Z,51.05
2022-11-23T21:46:23.267Z,50.73
2022-11-23T21:48:51.593Z,51.11
2022-11-23T21:51:18.147Z,50.80
2022-11-23T21:53:44.848Z,50.82
2022-11-23T21:56:15.253Z,50.80
2022-11-23T21:58:42.366Z,51.01
2022-11-23T22:01:11.461Z,50.90
2022-11-23T22:03:45.109Z,50.91
2022-11-23T22:06:18.868Z,50.81
2022-11-23T22:08:50.916Z,50.65
2022-11-23T22:11:18.291Z,50.71
2022-11-23T22:13:45.074Z,50.56
2022-11-23T22:16:15.387Z,50.90
2022-11-23T22:18:41.850Z,50.54
2022-11-23T22:21:09.440Z,50.59
2022-11-23T22:23:35.965Z,50.79
2022-11-23T22:26:03.234Z,51.02
2022-11-23T22:28:33.173Z,51.01
2022-11-23T22:30:59.592Z,50.73
2022-11-23T22:33:26.936Z,50.76
2022-11-23T22:35:53.344Z,50.85
2022-11-23T22:38:20.000Z,50.94
2022-11-23T22:40:46.815Z,50.90
2022-11-23T22:43:13.212Z,50.99
2022-11-23T22:45:39.688Z,50.90
2022-11-23T22:48:06.208Z,50.77
2022-11-23T22:50:32.727Z,51.21
2022-11-23T22:52:59.520Z,50.98
2022-11-23T22:55:25.900Z,50.97
2022-11-23T22:57:52.337Z,51.07
2022-11-23T23:00:18.932Z,51.19
2022-11-23T23:02:46.136Z,51.12
2022-11-23T23:05:12.754Z,50.99
2022-11-23T23:07:39.243Z,51.11
2022-11-23T23:10:06.002Z,51.22
2022-11-23T23:12:32.394Z,51.28
2022-11-23T23:14:58.894Z,51.36
2022-11-23T23:17:25.330Z,51.32
2022-11-23T23:19:51.680Z,51.23
2022-11-23T23:22:18.058Z,51.23
2022-11-23T23:24:45.719Z,51.28
2022-11-23T23:27:12.311Z,51.59
2022-11-23T23:29:38.892Z,51.39
2022-11-23T23:32:05.515Z,51.46
2022-11-23T23:34:32.344Z,51.47
2022-11-23T23:36:58.970Z,51.59
2022-11-23T23:39:25.363Z,51.41
2022-11-23T23:41:51.712Z,51.64
2022-11-23T23:44:19.621Z,51.73
2022-11-23T23:46:46.054Z,51.57
2022-11-23T23:49:12.438Z,51.49
2022-11-23T23:51:38.818Z,51.91
2022-11-23T23:54:05.248Z,51.98
2022-11-23T23:56:31.620Z,51.95
2022-11-23T23:58:59.186Z,52.25
